Date,TemperatureHighF,TemperatureAvgF,TemperatureLowF,DewpointHighF,DewpointAvgF,DewpointLowF,HumidityHigh,HumidityAvg,HumidityLow,PressureMaxIn,PressureMinIn,WindSpeedMaxMPH,WindSpeedAvgMPH,GustSpeedMaxMPH,PrecipitationSumIn
2013-1-1,59.1,46.4,37.1,49.5,37.5,31.6,100,75,42,30.15,30.03,9,-131,13,0.00
2013-1-2,40.1,37.1,34.7,34.0,32.5,31.1,96,84,74,30.03,30.00,5,3,6,0.00
2013-1-3,59.9,42.5,31.9,44.3,34.6,-99.9,100,78,38,30.12,30.00,5,2,7,0.00
2013-1-4,60.6,44.8,34.0,46.1,36.3,34.0,100,77,40,30.15,30.03,5,2,8,0.00
2013-1-5,52.4,44.1,36.1,48.6,42.3,36.1,100,94,71,30.12,29.91,13,5,18,0.46
2013-1-6,60.7,48.1,39.7,53.1,43.9,-99.9,100,88,51,30.03,29.91,10,2,13,0.00
2013-1-7,62.9,47.2,37.6,56.2,42.9,-99.9,100,88,53,30.12,30.00,7,1,8,0.00
2013-1-8,58.9,46.6,38.1,54.6,42.8,-99.9,100,89,57,30.12,29.97,8,2,11,0.00
2013-1-9,56.7,46.3,39.4,51.4,41.5,33.3,100,85,59,30.00,29.83,18,5,28,0.00
2013-1-10,55.8,45.0,39.0,34.2,30.4,-99.9,75,59,37,30.06,29.91,13,5,17,0.00
2013-1-11,57.4,45.4,37.6,41.2,33.7,25.7,97,65,39,30.12,29.97,12,5,16,0.00
2013-1-12,55.8,42.5,32.2,40.2,30.8,23.4,100,69,29,30.09,29.97,6,2,8,0.00
2013-1-13,57.2,46.7,33.0,35.9,25.8,14.2,91,47,30,30.06,30.03,10,3,17,0.00
2013-1-14,57.6,42.2,29.5,28.7,21.9,-99.9,80,48,27,30.27,30.06,9,3,12,0.00
2013-1-15,55.7,41.1,30.6,41.6,31.3,27.0,100,73,37,30.36,30.24,7,3,9,0.00
2013-1-16,62.2,42.7,29.5,38.1,32.1,-99.9,100,72,36,30.30,30.12,6,3,9,0.00
2013-1-17,62.5,45.0,31.1,44.4,34.5,30.9,100,72,36,30.15,30.00,7,3,10,0.00
2013-1-18,66.0,48.0,34.5,42.2,36.1,29.8,100,67,34,30.12,29.97,9,3,11,0.00
2013-1-19,65.6,47.3,32.7,42.4,34.8,32.0,100,68,35,30.12,30.00,8,4,12,0.00
2013-1-20,69.4,51.2,36.2,38.3,33.0,28.3,82,53,32,30.03,29.97,9,4,13,0.00
2013-1-21,63.2,47.3,32.2,41.6,35.9,29.9,100,68,38,30.03,29.94,9,3,11,0.00
2013-1-22,63.9,50.7,39.0,43.2,38.8,35.4,97,66,37,29.97,29.85,9,2,12,0.00
2013-1-23,53.2,49.8,48.4,49.3,45.4,40.5,100,86,68,29.97,29.80,8,2,12,0.00
2013-1-24,64.1,53.2,48.6,56.6,50.6,48.6,100,92,63,30.06,29.91,8,2,10,0.00
2013-1-25,75.9,58.1,48.1,60.3,51.8,48.1,100,82,44,30.03,29.88,9,2,11,0.00
2013-1-26,63.3,53.0,46.1,51.6,43.2,35.1,100,73,37,29.94,29.83,16,7,23,0.00
2013-1-27,62.2,49.9,40.6,38.7,35.0,-99.9,79,59,35,30.03,29.91,11,6,17,0.00
2013-1-28,64.0,51.4,45.3,41.7,37.4,-99.9,82,61,37,30.12,30.00,13,7,20,0.00
2013-1-29,66.6,51.9,42.2,44.1,40.1,36.2,88,67,37,30.21,30.09,10,4,13,0.00
2013-1-30,67.8,52.5,39.6,49.7,42.5,38.5,100,73,40,30.18,30.09,6,2,8,0.00
2013-1-31,72.3,51.6,37.6,56.6,43.2,37.6,100,78,38,30.15,30.03,5,2,6,0.00
2013-2-1,70.3,52.0,38.6,55.5,42.0,38.6,100,74,37,30.06,29.97,9,3,11,0.00
2013-2-2,71.0,51.7,42.0,51.0,45.1,-99.9,100,82,43,30.15,30.03,9,3,12,0.00
2013-2-3,67.3,50.7,40.3,52.8,44.2,39.6,100,81,47,30.12,29.97,7,2,10,0.00
2013-2-4,65.8,48.0,38.8,51.7,45.1,38.8,100,91,57,30.03,29.91,6,2,10,0.00
2013-2-5,61.4,51.1,40.8,47.3,44.1,40.8,100,79,52,30.00,29.88,15,6,20,0.00
2013-2-6,66.0,50.2,37.4,50.9,41.6,36.8,100,76,42,30.06,29.97,15,4,18,0.00
2013-2-7,60.9,48.8,38.3,49.4,41.3,31.3,100,79,37,30.00,29.83,13,4,19,0.00
2013-2-8,61.1,46.9,36.2,46.3,37.4,33.1,100,74,37,29.85,29.77,12,4,16,0.00
2013-2-9,67.8,49.2,36.3,36.1,31.6,27.8,80,54,26,29.94,29.83,7,3,11,0.00
2013-2-10,68.5,47.3,29.8,40.9,33.5,27.1,94,63,33,29.97,29.85,7,3,10,0.00
2013-2-11,72.4,51.9,36.2,38.9,34.0,29.8,97,58,24,30.06,29.91,10,3,11,0.00
2013-2-12,68.4,49.3,35.3,53.0,39.4,32.5,100,75,34,30.21,30.06,6,2,7,0.00
2013-2-13,70.2,49.9,36.0,52.0,41.6,36.0,100,78,34,30.21,30.03,6,2,8,0.00
2013-2-14,74.4,57.1,38.5,56.6,43.0,38.5,100,66,31,30.12,30.00,7,2,9,0.00
2013-2-15,74.5,54.4,40.3,54.4,42.2,38.9,100,72,31,30.15,30.06,8,4,10,0.00
2013-2-17,48.7,44.8,41.5,41.7,39.4,37.3,90,82,74,29.85,29.83,4,2,5,0.00
2013-2-18,59.7,47.0,37.0,50.8,38.9,35.5,100,76,44,29.88,29.80,16,6,23,0.00
2013-2-19,52.6,46.1,40.4,45.3,37.0,30.3,98,71,46,29.80,29.59,18,7,24,0.08
2013-2-20,64.3,49.7,39.1,40.4,34.0,-99.9,78,58,34,29.91,29.71,13,6,18,0.00
2013-2-21,67.6,51.1,40.3,38.9,35.1,32.8,87,58,29,30.00,29.88,12,5,17,0.00
2013-2-22,70.8,51.4,36.1,48.4,40.4,35.1,100,71,33,30.12,30.00,13,4,18,0.00
2013-2-23,63.1,52.7,45.7,49.9,36.9,31.0,96,58,32,30.12,30.00,16,8,22,0.00
2013-2-24,75.5,54.2,39.9,34.7,30.1,24.7,82,43,21,30.09,30.00,10,4,13,0.00
2013-2-25,74.8,51.6,36.4,49.9,38.8,32.8,100,67,32,30.12,30.00,9,3,12,0.00
2013-2-26,77.7,53.6,36.1,44.4,34.1,-99.9,98,55,21,30.09,29.97,9,2,13,0.00
2013-2-27,74.7,53.4,35.1,46.6,40.1,35.0,100,68,26,30.21,30.03,9,3,14,0.00
2013-2-28,75.0,58.3,47.5,56.1,48.6,44.1,97,74,41,30.27,30.18,11,3,15,0.00
2013-3-1,79.5,57.7,42.4,58.7,46.9,42.4,100,74,33,30.27,30.06,7,2,8,0.00
2013-3-2,76.9,59.2,46.3,54.5,48.7,43.7,100,73,39,30.09,29.88,9,2,12,0.00
2013-3-3,70.8,56.6,45.2,54.9,46.8,40.9,99,74,35,29.94,29.85,13,4,20,0.00
2013-3-4,66.0,51.4,41.7,47.5,44.2,37.9,100,80,45,30.00,29.88,10,4,15,0.00
2013-3-5,62.4,49.3,36.0,50.9,41.5,36.0,100,78,46,29.91,29.65,14,5,28,0.00
2013-3-6,63.1,53.0,39.9,50.9,39.9,32.7,100,65,35,29.91,29.68,23,7,30,0.00
2013-3-7,58.1,43.2,37.9,50.0,41.2,37.9,100,94,56,29.85,29.80,8,2,10,0.00
2013-3-13,87.1,70.4,48.1,55.8,49.5,-99.9,100,53,30,30.00,29.88,6,2,9,0.00
2013-3-14,75.3,53.1,44.6,55.9,47.9,43.9,100,85,44,30.00,29.91,6,1,8,0.00
2013-3-15,47.5,47.4,47.0,42.2,42.0,41.6,82,82,80,29.97,29.97,2,1,3,0.00
2013-3-17,80.3,58.4,45.4,42.3,34.5,-99.9,78,49,24,29.94,29.88,12,5,19,0.00
2013-3-18,74.1,56.2,40.0,50.2,43.2,36.5,100,66,36,29.97,29.85,10,3,13,0.00
2013-3-19,76.1,55.8,45.1,48.7,43.7,34.5,97,67,34,29.97,29.88,9,2,12,0.00
2013-3-20,68.5,55.0,48.4,55.5,50.0,-99.9,100,85,56,29.97,29.91,12,3,17,0.00
2013-3-21,72.7,54.9,40.0,48.0,40.6,-99.9,100,64,33,30.00,29.85,11,-6,15,0.00
2013-3-26,74.6,62.1,48.0,49.3,43.7,39.6,88,53,34,29.85,29.77,11,5,14,0.00
2013-3-27,69.8,57.4,47.3,53.4,48.2,43.5,98,74,46,29.85,29.80,10,2,13,0.00
2013-3-28,81.1,56.8,51.1,55.6,43.0,-99.9,99,72,35,29.94,29.85,7,2,9,0.00
2013-3-29,86.7,62.7,47.3,61.6,50.5,-99.9,100,72,29,29.94,29.83,8,-4,11,0.00
2013-3-30,80.3,61.6,52.5,56.8,52.0,42.7,100,75,33,29.91,29.83,11,3,15,0.00
2013-3-31,74.8,60.5,53.8,60.0,53.2,46.6,100,80,41,29.91,29.83,12,3,17,0.00
2013-4-1,74.3,58.8,49.6,60.6,52.8,47.5,100,84,45,30.00,29.88,10,3,14,0.00
2013-4-2,81.8,58.4,45.6,58.9,50.1,45.6,100,79,38,30.03,29.91,10,-76,13,0.00
2013-4-3,87.0,59.1,45.5,58.3,49.5,45.3,100,77,29,29.97,29.80,8,-135,9,0.00
2013-4-4,68.2,57.9,50.9,60.3,54.3,50.3,100,89,62,29.97,29.83,9,-188,13,0.00
2013-4-5,69.9,58.7,52.9,59.2,51.6,-99.9,100,81,46,30.03,29.94,13,-153,18,0.00
2013-4-6,75.5,59.9,52.3,57.0,53.0,47.9,100,81,40,30.03,29.97,10,3,17,0.00
2013-4-7,70.0,58.9,51.7,55.8,49.7,43.9,100,74,45,30.03,29.68,26,6,37,0.00
2013-4-8,71.8,57.4,47.3,45.0,37.9,31.8,81,50,30,29.88,29.68,22,-266,33,0.00
2013-4-9,84.0,64.1,50.0,45.3,39.5,35.1,63,44,21,29.97,29.85,13,-69,20,0.00
2013-4-10,92.8,69.4,56.7,51.9,46.1,39.5,73,46,21,30.03,29.85,15,6,22,0.00
2013-4-11,81.5,63.1,49.3,48.7,43.1,-99.9,91,52,29,29.88,29.68,16,7,23,0.00
2013-4-12,85.8,59.9,42.8,56.0,45.8,42.1,100,66,30,29.80,29.68,12,3,16,0.00
2013-4-13,72.1,57.7,45.1,51.6,42.4,37.7,97,60,36,29.77,29.65,16,6,23,0.00
2013-4-14,74.0,57.0,43.7,47.9,38.3,32.1,91,54,25,29.80,29.71,20,8,28,0.00
2013-4-15,64.5,53.2,44.6,47.6,37.7,31.9,98,59,35,29.80,29.71,22,10,32,0.00
2013-4-16,72.7,56.7,44.2,40.8,34.3,30.1,71,46,24,30.03,29.80,14,7,19,0.00
2013-4-17,78.3,61.9,45.7,39.6,33.4,27.8,62,37,20,30.12,30.00,13,5,20,0.00
2013-4-18,88.5,69.4,50.2,52.3,39.5,35.3,79,38,19,30.06,30.00,10,4,14,0.00
2013-4-19,88.5,65.6,44.3,52.1,45.7,40.4,100,55,26,30.09,29.91,12,4,15,0.00
2013-4-20,95.8,68.4,51.9,47.5,42.6,39.9,71,43,17,29.97,29.83,10,4,15,0.00
2013-4-21,98.2,69.7,45.5,55.8,46.8,39.9,100,54,16,29.94,29.83,7,2,10,0.00
2013-4-22,104.2,69.8,49.6,53.8,39.1,-99.9,100,47,12,30.98,29.88,9,-55,13,0.00
2013-4-23,95.1,71.1,48.2,47.3,40.5,31.3,97,41,11,29.74,29.71,11,5,16,0.00
2013-4-24,67.6,53.1,46.3,48.4,46.9,44.3,99,82,45,29.80,29.71,10,-233,13,0.00
2013-4-25,70.0,57.2,47.4,53.1,48.5,44.9,100,75,45,29.97,29.80,9,-110,14,0.00
2013-4-26,82.8,59.7,48.2,53.6,48.8,45.3,100,72,35,30.09,29.97,10,5,15,0.00
2013-4-27,85.4,60.5,44.2,55.7,48.5,43.5,100,71,32,30.09,29.91,7,-170,10,0.00
2013-4-28,96.4,67.4,44.4,60.0,50.3,-99.9,100,63,27,29.91,29.71,7,2,10,0.00
2013-4-29,96.4,72.7,53.5,62.0,51.6,44.9,100,55,21,29.74,29.59,11,4,15,0.00
2013-4-30,93.3,71.2,52.4,51.9,44.2,40.5,81,44,20,29.71,29.62,8,4,11,0.00
2013-5-1,99.5,79.4,57.2,41.2,31.9,-99.9,44,20,10,29.91,29.83,10,3,13,0.00
2013-5-2,102.6,74.4,48.2,48.1,35.3,23.6,75,32,9,30.00,29.91,11,3,16,0.00
2013-5-3,101.8,73.5,49.9,45.9,38.8,-99.9,68,33,13,29.91,29.65,10,3,13,0.00
2013-5-4,98.5,71.0,49.5,51.5,44.5,36.7,92,46,14,29.65,29.38,9,2,13,0.00
2013-5-5,66.0,57.6,51.5,50.6,48.3,46.1,90,72,50,29.62,29.47,11,5,18,0.00
2013-5-8,71.9,60.6,51.6,50.7,49.4,47.9,94,69,46,29.97,29.91,12,7,18,0.00
2013-5-9,72.3,58.4,49.1,56.7,49.0,46.3,100,76,41,30.00,29.94,10,4,16,0.00
2013-5-11,75.7,75.7,75.6,54.5,54.3,54.1,48,47,46,29.97,29.97,2,2,3,0.00
2013-5-12,88.0,66.4,47.3,58.2,50.1,43.0,100,62,29,30.00,29.85,11,4,18,0.00
2013-5-13,86.6,65.9,46.9,61.5,50.4,45.6,100,63,32,29.91,29.77,11,4,16,0.00
2013-5-14,85.0,67.3,50.4,56.1,48.9,44.6,98,58,29,29.80,29.74,12,4,16,0.00
2013-5-16,67.2,59.2,54.9,49.7,48.4,45.6,80,69,45,29.83,29.80,19,12,28,0.00
2013-5-17,72.7,60.3,50.2,49.6,44.2,39.3,92,59,33,29.91,29.80,18,7,26,0.00
2013-5-18,87.6,64.6,45.0,55.0,46.9,43.1,100,58,27,29.97,29.88,17,6,24,0.00
2013-5-19,95.3,70.5,49.7,48.3,42.9,37.2,82,42,17,29.97,29.80,10,4,15,0.00
2013-5-20,102.3,74.2,50.5,57.9,45.8,36.1,98,46,14,29.85,29.74,12,3,17,0.00
2013-5-21,67.3,58.4,51.9,42.1,39.2,35.3,56,49,38,29.83,29.74,20,-92,29,0.00
2013-5-22,69.1,50.7,49.6,35.6,32.0,29.5,53,49,30,29.85,29.83,11,6,17,0.00
2013-5-23,81.1,65.0,51.1,45.9,41.1,37.5,75,45,28,29.85,29.80,13,-51,16,0.00
2013-5-24,50.9,48.8,45.3,43.9,41.9,39.3,81,77,75,29.83,29.80,5,2,8,0.00
2013-5-26,74.4,65.7,54.5,49.5,47.9,46.1,80,55,37,29.94,29.88,18,11,25,0.00
2013-5-27,67.8,61.1,52.1,58.1,53.0,45.5,100,76,57,29.97,29.83,10,4,15,0.00
2013-5-28,58.1,57.6,57.4,58.1,57.4,57.1,100,100,99,29.85,29.83,2,0,3,0.00
2013-5-29,75.7,66.4,53.1,54.5,48.6,44.0,82,54,37,29.83,29.71,19,9,27,0.00
2013-5-30,58.8,54.2,48.4,48.0,44.8,41.8,88,72,55,29.83,29.77,9,4,12,0.00
2013-5-31,53.8,51.5,49.7,45.6,43.8,41.4,83,75,68,29.83,29.83,4,2,5,0.00
2013-6-3,65.1,65.1,65.1,53.1,53.1,53.1,65,65,65,29.62,29.62,0,0,2,0.00
2013-6-4,83.7,68.4,54.0,53.5,49.6,-99.9,92,55,33,29.80,29.77,10,5,15,0.00
2013-6-5,85.3,64.7,53.1,52.7,51.0,49.0,96,66,32,29.85,29.74,11,5,15,0.00
2013-6-6,87.4,67.0,51.5,55.4,51.6,48.9,100,63,32,29.80,29.68,8,-9,12,0.00
2013-6-7,94.9,74.5,51.0,59.1,55.6,49.4,98,59,28,29.74,29.56,7,3,9,0.00
2013-6-8,100.7,79.2,58.1,59.5,54.7,48.3,92,48,25,29.65,29.53,6,-1,10,0.00
2013-6-9,58.0,57.5,57.1,55.0,54.4,53.6,92,90,88,29.68,29.65,5,2,8,0.00
2013-6-10,69.7,69.2,68.0,48.8,48.6,48.3,50,48,47,29.77,29.77,6,5,8,0.00
2013-6-11,87.3,72.6,55.0,54.7,49.3,41.5,80,45,31,29.83,29.71,10,4,13,0.00
2013-6-12,88.3,65.9,47.7,54.4,45.4,41.3,99,54,24,29.83,29.74,16,-3,25,0.00
2013-6-13,91.0,67.8,50.2,50.7,43.8,39.3,76,46,22,29.94,29.80,11,5,16,0.00
2013-6-14,99.1,72.8,51.7,53.8,44.9,39.2,84,44,16,29.83,29.65,10,3,13,0.00
2013-6-15,82.8,63.1,46.8,54.8,47.6,43.9,100,62,31,29.83,29.68,13,4,17,0.00
2013-6-16,87.1,66.5,47.4,57.9,47.5,43.8,100,57,29,29.91,29.83,15,5,25,0.00
2013-6-17,76.9,65.3,53.8,54.9,50.6,45.1,91,62,37,29.94,29.83,17,-6,26,0.00
2013-6-18,72.8,62.7,54.5,55.4,49.0,44.5,97,64,36,29.85,29.80,22,11,29,0.00
2013-6-19,82.4,64.9,50.9,49.8,45.6,42.5,94,54,29,29.91,29.83,16,7,26,0.00
2013-6-20,89.2,66.7,48.8,51.9,44.7,41.2,86,50,22,29.85,29.77,18,6,26,0.00
2013-6-21,89.0,68.7,47.7,55.6,47.1,42.4,99,52,23,29.83,29.74,12,4,17,0.00
2013-6-22,92.3,71.8,50.2,53.2,48.3,43.5,94,50,22,29.77,29.68,15,4,24,0.00
2013-6-24,68.9,63.4,59.0,61.9,58.6,54.3,100,85,61,29.77,29.68,7,2,10,0.17
2013-6-25,72.7,65.4,60.1,64.9,61.8,58.5,100,89,71,29.83,29.74,9,3,18,0.08
2013-6-26,93.9,74.5,60.4,69.7,60.5,54.8,100,67,33,29.88,29.80,10,3,14,0.00
2013-6-27,91.9,73.5,56.9,67.4,58.5,52.1,100,69,28,29.91,29.85,13,4,17,0.00
2013-6-28,104.9,89.6,67.3,63.5,55.1,46.4,73,34,18,29.85,29.71,10,4,16,0.00
2013-6-29,104.8,82.7,59.9,61.0,54.4,47.5,92,44,18,29.74,29.59,10,3,14,0.00
2013-6-30,102.3,78.7,57.8,59.8,53.4,-99.9,87,47,23,29.68,29.56,10,3,15,0.00
2013-7-1,99.8,76.6,57.4,62.0,57.0,51.8,92,57,26,29.68,29.62,9,3,12,0.00
2013-7-2,105.8,77.7,61.9,62.1,57.1,47.9,88,56,17,29.77,29.65,10,4,15,0.00
2013-7-3,101.6,76.0,59.2,61.8,57.7,-99.9,96,60,26,29.77,29.59,9,3,12,0.00
2013-7-4,101.8,80.6,64.0,63.1,54.7,40.6,91,47,20,29.62,29.47,14,4,17,0.00
2013-7-5,82.8,67.4,56.1,55.8,50.8,41.7,89,57,34,29.62,29.53,12,5,20,0.00
2013-7-6,87.1,66.5,53.6,55.3,52.2,49.1,99,65,31,29.65,29.56,9,4,13,0.00
2013-7-7,85.3,66.1,51.7,55.6,52.4,49.3,100,67,32,29.71,29.62,8,3,11,0.00
2013-7-8,82.9,66.0,51.7,56.4,53.4,50.1,100,69,36,29.80,29.71,9,3,12,0.00
2013-7-9,96.9,72.1,52.3,58.0,53.8,47.6,100,62,23,29.88,29.74,7,3,10,0.00
2013-7-10,91.3,69.0,51.4,57.3,53.2,49.0,100,64,30,29.83,29.74,8,3,12,0.00
2013-7-14,84.0,70.3,52.9,54.8,51.8,48.2,91,56,36,29.80,29.71,9,4,12,0.00
2013-7-15,82.2,62.5,51.4,55.3,51.8,48.5,100,73,35,29.77,29.68,11,4,17,0.00
2013-7-16,77.0,63.0,56.8,55.4,52.6,50.4,87,71,43,29.85,29.71,10,4,14,0.00
2013-7-17,87.3,67.2,53.1,57.9,54.1,49.8,100,68,32,29.94,29.85,9,4,13,0.00
2013-7-18,90.6,66.7,51.8,58.2,52.8,46.6,100,68,31,29.91,29.77,8,3,12,0.00
2013-7-19,88.5,67.5,51.6,58.0,53.0,47.2,100,66,31,29.83,29.65,8,3,11,0.00
2013-7-20,86.7,67.3,52.8,58.1,53.6,50.7,100,67,33,29.71,29.56,9,3,12,0.00
2013-7-21,87.5,67.3,54.0,56.7,53.0,50.9,97,66,31,29.74,29.59,9,4,13,0.00
2013-7-22,93.7,70.0,53.6,60.1,53.9,42.4,100,64,24,29.83,29.74,7,3,12,0.00
2013-7-23,86.3,70.4,60.7,58.3,54.9,48.1,83,62,30,29.83,29.77,6,2,10,0.00
2013-7-24,60.6,58.2,56.3,56.9,55.7,54.2,98,92,82,29.83,29.80,4,1,7,0.00
2013-8-15,89.0,78.4,64.2,66.9,60.6,56.3,93,58,37,29.83,29.74,12,6,17,0.00
2013-8-16,92.5,70.8,58.6,67.2,57.2,49.4,100,69,27,29.85,29.77,12,4,17,0.00
2013-8-17,89.7,69.1,54.6,64.2,54.9,50.4,100,67,29,29.83,29.68,12,3,15,450.56
2013-8-18,103.0,71.9,55.0,63.8,57.6,53.6,100,69,25,29.77,29.59,7,2,10,0.00
2013-8-19,98.3,75.8,61.3,65.6,57.5,48.1,92,60,21,29.74,29.62,9,-11,12,0.00
2013-8-20,90.7,71.7,58.8,61.6,56.4,50.0,96,65,29,29.77,29.62,8,-7,12,0.00
2013-8-21,89.4,67.7,55.4,58.3,54.6,49.3,100,69,30,29.80,29.68,10,-34,15,0.00
2013-8-22,86.3,65.9,55.6,56.7,53.0,49.6,100,68,32,29.83,29.74,11,1,17,0.00
2013-8-23,84.2,67.0,56.8,56.9,53.8,49.9,96,67,33,29.77,29.62,10,-52,13,0.00
2013-8-24,85.2,67.9,52.7,62.1,54.7,50.9,100,67,34,29.74,29.68,15,5,20,0.00
2013-8-25,89.2,74.0,61.7,64.4,59.6,53.0,98,66,31,29.80,29.74,10,-1,13,0.00
2013-9-3,84.0,73.2,57.2,63.6,53.9,45.3,98,55,27,29.83,29.74,15,7,20,0.00
2013-9-4,87.5,68.8,56.4,61.4,55.1,49.3,100,67,29,29.85,29.74,15,5,20,0.00
2013-9-5,82.8,68.6,55.8,64.2,53.0,48.0,100,63,31,29.83,29.77,16,6,23,0.00
2013-9-6,102.5,74.7,52.3,57.7,48.6,40.0,100,49,15,29.83,29.65,7,2,11,0.00
2013-9-7,103.3,77.4,55.6,59.7,49.3,42.9,82,45,15,29.74,29.62,8,2,13,0.00
2013-9-8,96.8,71.1,51.4,60.4,54.0,49.0,100,61,26,29.74,29.59,7,2,9,0.00
2013-9-9,96.1,71.6,51.6,57.3,52.9,44.2,99,61,18,29.68,29.53,8,3,11,0.00
2013-9-10,87.8,68.3,54.5,62.5,56.3,53.1,100,71,34,29.77,29.56,8,3,14,0.00
2013-9-11,86.8,70.0,64.2,60.7,57.4,54.2,86,67,34,29.83,29.74,8,3,12,0.00
2013-9-12,87.8,68.6,57.6,61.9,58.7,54.1,99,75,35,29.83,29.71,12,4,17,0.00
2013-9-13,85.5,66.0,54.7,63.2,54.6,49.2,100,72,31,29.74,29.59,12,3,17,0.00
2013-9-14,80.6,64.1,53.1,60.6,53.7,49.3,100,74,41,29.68,29.56,11,4,15,0.00
2013-9-15,84.6,67.9,53.6,62.1,55.3,50.3,100,71,32,29.71,29.62,11,5,19,0.00
2013-9-16,86.8,68.2,54.6,64.9,55.2,49.3,100,69,31,29.77,29.62,13,4,17,0.00
2013-9-17,77.7,66.5,55.3,61.0,51.2,46.8,98,61,37,29.74,29.65,16,7,23,0.00
2013-9-18,94.8,70.2,55.9,50.7,44.9,38.6,70,45,17,29.77,29.65,11,3,16,0.00
2013-9-19,96.8,70.1,48.3,52.2,46.4,38.8,99,52,17,29.74,29.56,8,2,13,0.00
2013-9-21,65.7,59.8,56.3,55.7,54.1,51.4,98,82,60,29.74,29.68,10,5,13,0.00
2013-9-22,81.2,64.5,49.7,63.8,52.1,44.3,100,70,33,29.83,29.74,15,4,20,0.00
2013-9-23,90.0,69.2,52.6,61.2,53.4,49.0,97,62,29,29.85,29.77,12,4,15,0.00
2013-9-24,79.9,65.4,55.7,57.0,50.3,44.1,100,63,31,29.80,29.71,19,7,29,0.00
2013-9-25,75.4,63.0,55.3,48.0,43.8,39.9,74,52,31,29.77,29.65,18,8,26,0.00
2013-9-26,82.9,64.3,50.7,44.0,38.8,34.7,66,43,19,29.83,29.68,10,5,14,0.00
2013-9-27,86.6,66.2,49.3,44.3,37.2,30.1,65,38,19,29.94,29.83,9,3,14,0.00
2013-9-28,89.0,64.6,45.7,57.6,45.7,35.1,92,57,18,29.94,29.83,10,4,15,0.00
2013-9-29,80.7,66.1,53.9,64.2,57.0,52.4,100,76,43,29.94,29.88,8,-35,12,0.00
2013-9-30,80.8,68.3,56.7,68.0,56.8,38.9,100,70,43,29.91,29.80,10,-83,13,0.00
2013-10-1,84.0,63.8,46.9,57.0,46.1,42.1,100,58,27,29.85,29.74,9,2,12,0.00
2013-10-2,83.4,64.0,50.2,57.1,43.5,34.4,96,52,25,29.85,29.77,11,4,15,0.00
2013-10-3,81.6,63.2,51.7,37.3,35.3,31.1,51,37,18,29.91,29.83,11,5,17,0.00
2013-10-17,58.8,54.7,50.7,42.2,37.7,33.1,70,54,38,29.85,29.83,3,2,6,0.00
2013-10-18,84.8,60.3,42.4,53.7,43.0,35.3,100,60,22,29.91,29.83,5,2,7,0.00
2013-10-19,91.0,57.1,40.6,47.0,40.0,34.5,100,64,18,29.94,29.83,4,2,7,0.00
2013-10-20,80.7,57.5,39.7,57.1,44.8,38.5,100,68,31,29.88,29.77,6,2,9,0.00
2013-10-21,75.6,56.3,44.5,57.5,47.6,43.6,100,77,38,29.91,29.77,5,2,7,0.00
2013-10-22,78.7,55.6,43.0,61.4,47.8,42.7,100,80,33,29.91,29.77,5,2,8,0.00
2013-10-23,73.8,54.4,45.3,54.7,46.9,41.7,100,80,41,29.85,29.74,6,2,8,0.00
2013-10-24,73.8,55.3,44.8,50.6,47.3,42.9,100,79,37,29.97,29.83,9,3,13,0.00
2013-10-25,80.8,57.0,41.4,56.5,46.0,41.2,100,72,32,30.03,29.91,7,2,10,0.00
2013-10-26,87.3,60.1,40.6,55.2,43.8,36.3,100,64,22,30.00,29.85,5,2,6,0.00
2013-10-27,70.0,53.3,42.1,56.5,45.7,41.1,100,78,41,29.88,29.50,20,6,28,0.00
2013-10-28,72.6,56.7,44.6,50.7,44.1,37.4,98,66,33,29.68,29.53,12,4,17,0.00
2013-10-29,68.2,53.5,42.9,56.0,44.7,40.9,100,76,40,29.91,29.68,9,-8,11,0.00
2013-10-30,72.4,53.8,40.1,58.5,42.5,36.1,100,71,34,30.03,29.91,6,-12,9,0.00
2013-10-31,77.0,56.7,39.9,50.8,41.6,36.6,100,63,29,30.03,29.91,6,-11,9,0.00
2013-11-1,79.3,58.9,42.0,50.9,41.8,37.2,97,59,26,30.03,29.85,6,2,8,0.00
2013-11-2,78.9,57.3,42.3,50.4,44.0,38.6,96,64,28,29.88,29.74,13,4,17,0.00
2013-11-3,72.4,56.1,46.2,38.4,33.5,28.9,67,45,22,29.91,29.77,10,-98,15,0.00
2013-11-4,76.2,58.3,42.8,37.6,31.6,24.5,77,41,15,29.91,29.77,10,4,17,0.00
2013-11-5,77.3,59.7,43.6,40.1,33.9,28.5,65,41,21,30.06,29.91,6,-8,8,0.00
2013-11-6,76.5,58.6,44.1,44.4,37.3,34.3,75,48,24,30.12,30.00,6,-56,8,0.00
2013-11-7,80.8,61.6,47.9,50.9,41.4,32.9,91,53,21,30.03,29.91,9,2,10,0.00
2013-11-8,78.8,57.0,42.7,60.5,45.3,33.8,100,71,30,29.94,29.80,10,2,14,0.00
2013-11-9,77.8,55.3,38.2,60.1,42.5,38.2,100,70,31,29.88,29.80,5,-255,7,0.00
2013-11-10,71.2,53.9,41.1,58.2,45.1,41.1,100,76,40,30.00,29.88,6,-204,9,0.00
2013-11-11,73.1,55.1,39.6,57.3,46.9,39.4,100,78,41,30.03,29.91,5,-298,6,0.00
2013-11-12,78.7,60.9,50.6,52.9,47.5,43.8,87,64,31,30.12,30.00,6,-2,8,0.00
2013-11-13,79.7,58.7,44.3,61.9,48.5,44.3,100,74,34,30.09,29.94,7,-5,11,0.00
2013-11-14,71.2,55.5,47.3,61.6,46.6,34.9,100,75,47,29.97,29.74,11,-48,19,0.00
2013-11-15,74.7,55.8,41.8,46.5,38.2,34.9,87,55,26,29.74,29.56,8,-232,12,0.00
2013-11-16,71.2,53.1,39.6,51.6,43.8,36.6,100,76,34,29.77,29.62,14,3,20,0.00
2013-11-17,67.8,51.2,40.6,59.4,45.0,38.9,100,83,44,29.94,29.77,6,1,8,0.00
2013-11-18,65.0,50.9,37.9,56.5,43.6,37.9,100,79,46,30.00,29.91,7,2,10,0.00
2013-11-19,58.2,55.5,51.1,57.9,54.4,46.4,100,96,81,29.94,29.80,6,2,10,0.00
2013-11-20,64.0,56.6,50.0,61.7,55.8,49.9,100,98,76,29.80,29.71,8,3,10,0.00
2013-11-21,69.7,56.9,49.6,56.5,37.1,20.6,100,58,23,29.85,29.74,16,4,24,0.00
2013-11-22,76.7,63.1,50.7,31.3,20.0,14.4,37,19,13,29.91,29.77,15,5,26,0.00
2013-11-23,68.8,53.0,39.8,36.8,30.5,25.2,80,45,25,29.97,29.80,9,3,12,0.00
2013-11-24,67.9,49.2,35.4,49.1,37.5,31.3,100,70,33,30.12,29.94,6,2,8,0.00
2013-11-25,67.7,49.4,36.0,56.6,40.5,36.0,100,77,37,30.21,30.09,6,2,8,0.00
2013-11-26,68.0,49.9,38.5,53.4,40.2,36.0,100,74,33,30.12,29.91,6,2,8,0.00
2013-11-27,65.3,52.6,40.5,45.8,41.8,37.8,100,70,40,29.91,29.71,9,3,13,0.00
2013-11-28,75.5,54.7,41.3,51.4,40.6,34.1,100,66,27,29.91,29.74,5,2,6,0.00
2013-11-29,75.6,53.2,38.5,48.9,40.8,34.9,100,69,31,30.06,29.91,5,-19,8,0.00
2013-11-30,70.8,52.3,39.7,59.2,42.0,36.9,100,74,33,30.12,30.03,5,-121,7,0.00
2013-12-1,74.4,53.6,39.2,54.1,42.3,37.4,100,72,32,30.18,30.06,6,-98,7,0.00
2013-12-2,69.8,53.2,38.1,57.9,47.2,38.1,100,83,39,30.09,29.83,12,-213,15,0.00
2013-12-3,61.2,50.4,37.9,55.4,32.4,23.9,100,52,29,29.83,29.71,10,-264,13,0.00
2013-12-4,59.4,42.5,29.3,36.9,25.8,16.8,92,57,25,29.94,29.80,5,2,7,0.00
2013-12-5,55.9,38.1,24.7,32.8,23.6,13.8,100,62,25,30.03,29.94,6,2,8,0.00
2013-12-6,52.0,40.6,24.9,49.7,34.6,23.8,100,82,42,30.06,29.77,13,3,18,0.00
2013-12-7,53.5,41.9,30.6,46.1,28.4,19.7,95,62,31,30.12,29.77,11,4,17,0.00
2013-12-8,51.7,36.5,25.3,35.9,24.8,18.8,100,66,33,30.21,30.09,7,-8,9,0.00
2013-12-9,53.6,35.8,23.3,31.6,23.3,18.8,98,65,29,30.27,30.18,10,-14,12,0.00
2013-12-10,57.3,39.1,25.2,40.5,26.7,22.5,99,66,31,30.27,30.06,8,-1,11,0.00
2013-12-11,59.2,41.3,28.6,40.1,29.9,25.4,100,68,35,30.12,30.03,7,3,10,0.00
2013-12-12,64.8,44.7,29.5,43.9,32.0,25.2,100,66,33,30.15,30.03,6,-22,8,0.00
2013-12-13,64.8,44.2,30.7,50.3,35.4,29.3,100,76,35,30.21,30.09,6,-2,7,0.00
2013-12-14,61.7,44.7,31.9,51.6,35.2,31.3,100,75,37,30.27,30.18,9,3,11,0.00
2013-12-15,65.4,45.7,31.5,55.7,35.7,29.9,100,74,34,30.24,30.09,5,2,7,0.00
2013-12-16,66.8,49.2,36.1,44.2,36.4,31.0,100,66,33,30.12,30.00,11,3,14,0.00
2013-12-17,67.3,50.3,38.5,43.7,37.9,34.1,94,66,34,30.06,29.91,6,2,10,0.00
2013-12-18,67.6,49.5,35.8,47.5,40.9,35.0,100,76,35,29.91,29.62,12,-135,15,0.00
2013-12-19,67.3,52.7,39.5,42.2,29.7,17.1,73,44,23,29.80,29.59,13,-36,18,0.00
2013-12-20,67.6,48.7,32.8,34.7,25.4,15.7,69,42,25,29.88,29.80,6,-73,7,0.00
2013-12-21,67.5,51.0,39.4,46.5,41.0,30.3,100,72,39,29.94,29.80,7,-129,10,0.00
2013-12-22,65.0,48.6,35.9,54.3,37.7,32.4,100,72,33,30.15,29.94,8,-120,10,0.00
2013-12-23,68.7,49.3,36.1,52.2,37.9,32.3,100,71,32,30.27,30.15,6,-440,6,0.00
2013-12-24,71.9,50.9,38.2,47.3,39.5,35.0,100,71,32,30.21,30.06,7,-416,7,0.00
2013-12-25,65.5,47.6,34.0,57.5,38.9,34.0,100,77,38,30.18,30.06,10,-469,10,0.00
2013-12-26,66.2,48.2,34.0,57.7,36.5,31.1,100,70,33,30.12,30.03,7,-155,9,0.00
2013-12-27,66.3,46.9,35.4,47.2,35.2,32.2,99,68,33,30.09,29.97,5,-19,8,0.00
2013-12-28,69.5,46.7,31.6,44.9,33.8,29.5,100,67,27,30.00,29.88,6,-12,7,0.00
2013-12-29,66.6,47.8,34.2,37.9,29.3,24.1,80,52,27,30.06,29.94,10,-164,10,0.00
2013-12-30,68.5,47.3,33.8,45.8,34.5,28.3,100,66,33,30.12,30.03,6,-149,6,0.00
2013-12-31,56.7,39.3,34.9,51.7,37.7,33.8,100,94,55,30.15,30.06,4,-29,4,0.00
2014-1-1,41.0,40.4,39.7,34.7,34.2,33.4,83,79,77,30.03,30.03,3,3,4,0.00
2014-1-2,70.7,49.7,35.4,43.8,34.9,29.8,98,62,29,30.06,29.91,6,-35,8,0.00